Flight Track Log - Related Links

Times and Time Zones

All times are in EDT time to prevent confusion due to time zone crossing. See the AFL150 flight status page for this flight to view local times or setup timezone preferences in your user account.

Time Position Orientation Groundspeed Altitude Reporting Facility
EDT Latitude Longitude Course Direction KTS MPH feet Rate Location/Type
Mon 09:21:00 PM 24.3684 -81.5644 180° South  Level Estimated
Mon 09:22:00 PM 24.2681 -81.6266 180° South  Level Estimated
Mon 09:22:32 PM 27.8940 -82.6760 180° South 471 542 37,000  Level FlightAware ADS-B
Mon 09:22:39 PM 27.8801 -82.6669 150° Southeast 472 543 37,000  Level FlightAware ADS-B
Mon 09:23:13 PM 27.8168 -82.6353 156° South 458 527 37,000  Level FlightAware ADS-B
Mon 09:23:40 PM 27.7587 -82.6299 175° South 448 516 37,000  Level FlightAware ADS-B
Mon 09:24:38 PM 27.6390 -82.6260 178° South 452 520 37,000  Level FlightAware ADS-B
Mon 09:25:11 PM 27.5710 -82.6240 179° South 453 521 37,000  Level FlightAware ADS-B
Mon 09:25:48 PM 27.4920 -82.6220 179° South 454 522 37,000  Level FlightAware ADS-B
Mon 09:26:24 PM 27.4150 -82.6200 179° South 456 525 37,000  Level FlightAware ADS-B
Mon 09:26:57 PM 27.3450 -82.6180 179° South 457 526 37,000  Level FlightAware ADS-B
Mon 09:27:31 PM 27.2730 -82.6160 179° South 457 526 37,000  Level FlightAware ADS-B
Mon 09:28:04 PM 27.2090 -82.6140 178° South 456 525 37,000  Level FlightAware ADS-B
Mon 09:28:38 PM 27.1330 -82.6120 179° South 448 516 37,000  Level FlightAware ADS-B
Mon 09:29:14 PM 27.0630 -82.6100 179° South 449 517 37,000  Level FlightAware ADS-B
Mon 09:29:44 PM 26.9980 -82.6080 178° South 449 517 37,000  Level FlightAware ADS-B
Mon 09:30:18 PM 26.9270 -82.6060 179° South 450 518 37,000  Level FlightAware ADS-B
Mon 09:30:49 PM 26.8532 -82.6034 178° South 458 527 37,000  Level FlightAware ADS-B
Mon 09:31:29 PM 26.7740 -82.6010 178° South 450 518 37,000  Level FlightAware ADS-B
Mon 09:32:03 PM 26.6990 -82.5990 179° South 449 517 37,000  Level FlightAware ADS-B
Mon 09:32:48 PM 26.6060 -82.5960 178° South 447 514 37,000  Level FlightAware ADS-B
Mon 09:33:12 PM 26.5507 -82.5947 179° South 454 522 37,000  Level FlightAware ADS-B
Mon 09:33:46 PM 26.4789 -82.5926 179° South 454 522 37,000  Level FlightAware ADS-B
Mon 09:34:27 PM 26.3935 -82.5900 178° South 452 520 37,000  Level FlightAware ADS-B
Mon 09:35:16 PM 26.2904 -82.5868 178° South 451 519 37,000  Level FlightAware ADS-B
Mon 09:35:58 PM 26.2070 -82.5840 178° South 451 519 37,000  Level FlightAware ADS-B
Mon 09:36:28 PM 26.1397 -82.5823 179° South 452 520 37,000  Level FlightAware ADS-B
Mon 09:36:58 PM 26.0767 -82.5804 178° South 453 521 37,000  Level FlightAware ADS-B
Mon 09:37:28 PM 26.0140 -82.5785 178° South 453 521 37,000  Level FlightAware ADS-B
Mon 09:37:50 PM 25.9684 -82.5771 178° South 452 520 37,000  Level FlightAware ADS-B
Mon 09:38:30 PM 25.8852 -82.5746 178° South 453 521 37,000  Level FlightAware ADS-B
Mon 09:39:11 PM 25.7981 -82.5720 178° South 454 522 37,000  Level FlightAware ADS-B
Mon 09:39:52 PM 25.7136 -82.5694 178° South 455 524 37,000  Level FlightAware ADS-B
Mon 09:40:36 PM 25.6208 -82.5667 178° South 455 524 37,000  Level FlightAware ADS-B
Mon 09:41:06 PM 25.5562 -82.5647 178° South 456 525 37,000  Level FlightAware ADS-B
Mon 09:41:37 PM 25.4980 -82.5630 178° South 457 526 37,000  Level FlightAware ADS-B
Mon 09:42:23 PM 25.4000 -82.5600 178° South 448 516 37,000  Level FlightAware ADS-B
Mon 09:42:58 PM 25.3198 -82.5577 179° South 455 524 37,000  Level FlightAware ADS-B
Mon 09:43:38 PM 25.2390 -82.5550 178° South 448 516 37,000  Level FlightAware ADS-B
Mon 09:44:15 PM 25.1568 -82.5528 179° South 456 525 37,000 -240 Level FlightAware ADS-B
Mon 09:44:53 PM 25.0790 -82.5510 179° South 453 521 36,700 -692 Descending FlightAware ADS-B
Mon 09:45:33 PM 24.9990 -82.5480 178° South 454 522 36,100 -957 Descending FlightAware ADS-B
Mon 09:46:02 PM 24.9360 -82.5490 181° South 451 519 35,600 -1,091 Descending FlightAware ADS-B
Mon 09:46:17 PM 24.9020 -82.5600 196° South 449 517 35,300 -1,241 Descending FlightAware ADS-B
Mon 09:46:31 PM 24.8740 -82.5760 207° Southwest 449 517 35,000 -960 Descending FlightAware ADS-B
Mon 09:47:07 PM 24.8160 -82.6270 219° Southwest 458 527 34,500 -930 Descending FlightAware ADS-B
Mon 09:47:42 PM 24.7590 -82.6790 220° Southwest 459 528 33,900 -2,028 Descending FlightAware ADS-B
Mon 09:50:00 PM 24.5557 -82.6476 178° South  Level Estimated
Mon 09:51:00 PM 24.4697 -82.6216 165° South  Level FlightAware Approximate
Mon 09:52:00 PM 24.3836 -82.5955 165° South  Level FlightAware Approximate
Mon 09:53:00 PM 24.2976 -82.5695 165° South  Level FlightAware Approximate
Mon 09:53:08 PM 24.1797 -82.8406 173° South 403 464 22,300  Level Miami Center
Mon 09:54:00 PM 24.2115 -82.5436 165° South  Level FlightAware Approximate
Mon 09:55:00 PM 24.1255 -82.5177 165° South  Level FlightAware Approximate
Mon 09:56:00 PM 24.0366 -82.5091 180° South  Level Estimated
Mon 09:57:00 PM 23.9158 -82.5046 173° South  Level FlightAware Approximate
Mon 09:58:00 PM 23.8017 -82.4883 173° South  Level FlightAware Approximate
Mon 09:58:35 PM 23.8340 -83.5010 173° South 457 526 31,400  Level FlightAware ADS-B
Mon 10:01:00 PM 23.6554 -83.2682 130° Southeast  Level Estimated
Mon 10:02:00 PM 23.5814 -83.1720 130° Southeast  Level Estimated
Mon 10:03:00 PM 23.5073 -83.0760 130° Southeast  Level Estimated
Mon 10:04:00 PM 23.4332 -82.9800 130° Southeast  Level Estimated
Mon 10:05:00 PM 23.3590 -82.8842 130° Southeast  Level Estimated
Mon 10:06:00 PM 23.2847 -82.7884 130° Southeast  Level Estimated
Mon 10:07:00 PM 23.2104 -82.6928 130° Southeast  Level Estimated
Mon 10:08:00 PM 23.1361 -82.5973 130° Southeast  Level Estimated
Mon 10:09:00 PM 23.0617 -82.5019 130° Southeast  Level Estimated
Mon 10:10:00 PM 22.9891 -82.4091 130° Southeast  Level Estimated
Mon 10:11:00 PM 22.9891 -82.4091 51° Northeast  Level Estimated
Mon 10:12:00 PM 22.9891 -82.4091 51° Northeast  Level Estimated
Mon 10:13:00 PM 22.9891 -82.4091 51° Northeast  Level Estimated
Mon 10:14:00 PM 22.9891 -82.4091 51° Northeast  Level Estimated
Mon 10:15:00 PM 22.9891 -82.4091 51° Northeast  Level Estimated
Mon 10:16:00 PM 22.9891 -82.4091 51° Northeast  Level Estimated
Mon 10:17:00 PM 22.9891 -82.4091 51° Northeast  Level Estimated
Mon 10:18:00 PM 22.9891 -82.4091 51° Northeast  Level Estimated
Mon 10:19:00 PM 22.9891 -82.4091 51° Northeast  Level Estimated
Mon 10:20:00 PM 22.9891 -82.4091 51° Northeast  Level Estimated
Mon 10:21:00 PM 22.9891 -82.4091 51° Northeast  Level Estimated
Mon 10:22:00 PM 22.9891 -82.4091 51° Northeast  Level Estimated
Mon 10:23:00 PM 22.9891 -82.4091 51° Northeast  Level Estimated
Mon 10:24:00 PM 22.9891 -82.4091 51° Northeast  Level Estimated
Mon 10:25:00 PM 22.9891 -82.4091 51° Northeast  Level Estimated

Login

Don't have an account? Register now (free) for customized features, flight alerts, and more!